createdAt,value
2018-11-27T00:00:03.167Z,3.70
2018-11-27T00:02:31.432Z,3.60
2018-11-27T00:04:59.643Z,3.50
2018-11-27T00:07:27.878Z,3.60
2018-11-27T00:09:56.203Z,3.60
2018-11-27T00:12:24.512Z,3.80
2018-11-27T00:14:52.703Z,3.70
2018-11-27T00:17:20.934Z,3.70
2018-11-27T00:19:49.135Z,3.70
2018-11-27T00:22:17.337Z,3.80
2018-11-27T00:24:45.523Z,3.80
2018-11-27T00:27:13.731Z,3.60
2018-11-27T00:29:41.971Z,3.60
2018-11-27T00:32:10.228Z,3.40
2018-11-27T00:34:38.419Z,3.20
2018-11-27T00:37:06.667Z,3.20
2018-11-27T00:39:34.809Z,3.10
2018-11-27T00:42:03.010Z,3.00
2018-11-27T00:44:31.283Z,3.00
2018-11-27T00:46:59.514Z,3.00
2018-11-27T00:49:27.691Z,3.00
2018-11-27T00:51:55.909Z,3.00
2018-11-27T00:54:24.131Z,3.00
2018-11-27T00:56:52.330Z,3.00
2018-11-27T00:59:20.551Z,3.10
2018-11-27T01:01:48.762Z,3.00
2018-11-27T01:04:16.953Z,3.00
2018-11-27T01:06:45.157Z,3.00
2018-11-27T01:09:13.363Z,2.90
2018-11-27T01:11:41.627Z,2.90
2018-11-27T01:14:09.838Z,3.20
2018-11-27T01:16:38.086Z,3.40
2018-11-27T01:19:06.395Z,3.10
2018-11-27T01:21:34.665Z,3.00
2018-11-27T01:24:03.759Z,3.00
2018-11-27T01:26:31.935Z,3.00
2018-11-27T01:29:00.215Z,3.00
2018-11-27T01:31:28.490Z,3.00
2018-11-27T01:33:56.764Z,3.00
2018-11-27T01:36:25.007Z,3.10
2018-11-27T01:38:53.422Z,3.00
2018-11-27T01:41:21.699Z,2.90
2018-11-27T01:43:49.967Z,2.90
2018-11-27T01:46:18.166Z,2.90
2018-11-27T01:48:46.434Z,2.90
2018-11-27T01:51:14.700Z,2.90
2018-11-27T01:53:42.974Z,2.90
2018-11-27T01:56:11.243Z,2.90
2018-11-27T01:58:39.438Z,2.90
2018-11-27T02:01:07.696Z,2.90
2018-11-27T02:03:35.867Z,2.90
2018-11-27T02:06:04.068Z,2.90
2018-11-27T02:08:32.319Z,2.90
2018-11-27T02:11:00.578Z,2.90
2018-11-27T02:13:28.802Z,2.80
2018-11-27T02:15:57.071Z,2.90
2018-11-27T02:18:25.327Z,2.80
2018-11-27T02:20:53.583Z,2.90
2018-11-27T02:23:21.799Z,2.90
2018-11-27T02:25:50.055Z,2.90
2018-11-27T02:28:18.331Z,2.90
2018-11-27T02:30:46.543Z,2.90
2018-11-27T02:33:14.744Z,2.90
2018-11-27T02:35:42.955Z,2.90
2018-11-27T02:38:11.238Z,2.80
2018-11-27T02:40:39.429Z,3.00
2018-11-27T02:43:07.645Z,3.10
2018-11-27T02:45:35.831Z,3.30
2018-11-27T02:48:04.074Z,3.10
2018-11-27T02:50:32.305Z,3.10
2018-11-27T02:53:00.495Z,3.10
2018-11-27T02:55:28.752Z,3.20
2018-11-27T02:57:56.931Z,3.30
2018-11-27T03:00:26.222Z,3.20
2018-11-27T03:02:54.719Z,3.10
2018-11-27T03:05:30.507Z,2.90
2018-11-27T03:07:58.756Z,2.90
2018-11-27T03:10:26.935Z,2.80
2018-11-27T03:12:55.185Z,2.90
2018-11-27T03:15:23.388Z,3.10
2018-11-27T03:17:51.582Z,3.20
2018-11-27T03:20:19.820Z,2.90
2018-11-27T03:22:48.011Z,2.80
2018-11-27T03:25:18.184Z,2.80
2018-11-27T03:27:47.264Z,2.90
2018-11-27T03:30:16.514Z,3.10
2018-11-27T03:32:44.718Z,3.20
2018-11-27T03:35:14.849Z,3.20
2018-11-27T03:37:43.376Z,3.10
2018-11-27T03:40:15.611Z,3.00
2018-11-27T03:42:43.816Z,2.80
2018-11-27T03:45:13.207Z,2.80
2018-11-27T03:47:41.427Z,2.80
2018-11-27T03:50:13.849Z,2.70
2018-11-27T03:52:42.050Z,2.70
2018-11-27T03:55:11.249Z,2.60
2018-11-27T03:57:39.436Z,2.60
2018-11-27T04:00:20.496Z,2.60
2018-11-27T04:02:50.968Z,2.70
2018-11-27T04:05:19.191Z,2.60
2018-11-27T04:07:47.422Z,2.60
2018-11-27T04:10:17.754Z,2.60
2018-11-27T04:12:45.968Z,2.60
2018-11-27T04:15:14.243Z,2.70
2018-11-27T04:17:42.522Z,2.80
2018-11-27T04:20:11.415Z,2.90
2018-11-27T04:22:40.051Z,2.80
2018-11-27T04:25:10.644Z,2.80
2018-11-27T04:27:38.972Z,2.70
2018-11-27T04:30:10.953Z,2.70
2018-11-27T04:32:39.140Z,2.70
2018-11-27T04:35:08.047Z,2.80
2018-11-27T04:37:36.333Z,3.00
2018-11-27T04:40:05.116Z,3.20
2018-11-27T04:42:33.364Z,3.20
2018-11-27T04:45:01.580Z,3.20
2018-11-27T04:47:29.844Z,3.20
2018-11-27T04:49:58.075Z,3.10
2018-11-27T04:52:26.328Z,3.20
2018-11-27T04:54:54.517Z,3.40
2018-11-27T04:57:22.743Z,3.40
2018-11-27T04:59:50.964Z,3.50
2018-11-27T05:02:19.191Z,3.50
2018-11-27T05:04:47.409Z,3.40
2018-11-27T05:07:15.645Z,3.40
2018-11-27T05:09:43.859Z,3.30
2018-11-27T05:12:12.051Z,3.00
2018-11-27T05:14:40.272Z,2.90
2018-11-27T05:17:08.487Z,2.80
2018-11-27T05:19:36.682Z,2.80
2018-11-27T05:22:04.895Z,2.80
2018-11-27T05:24:33.116Z,2.70
2018-11-27T05:27:01.344Z,2.70
2018-11-27T05:29:29.557Z,2.70
2018-11-27T05:31:57.747Z,2.60
2018-11-27T05:34:25.992Z,2.70
2018-11-27T05:36:54.227Z,2.70
2018-11-27T05:39:22.415Z,2.70
2018-11-27T05:41:50.648Z,2.80
2018-11-27T05:44:18.930Z,2.90
2018-11-27T05:46:47.151Z,2.90
2018-11-27T05:49:15.364Z,2.90
2018-11-27T05:51:43.585Z,2.90
2018-11-27T05:54:11.852Z,2.90
2018-11-27T05:56:40.043Z,2.90
2018-11-27T05:59:08.359Z,2.80
2018-11-27T06:01:36.651Z,3.00
2018-11-27T06:04:05.027Z,3.10
2018-11-27T06:06:33.383Z,3.10
2018-11-27T06:09:01.571Z,3.10
2018-11-27T06:11:29.847Z,3.10
2018-11-27T06:13:58.069Z,3.10
2018-11-27T06:16:26.396Z,3.00
2018-11-27T06:18:54.624Z,3.00
2018-11-27T06:21:22.812Z,2.90
2018-11-27T06:23:51.023Z,2.90
2018-11-27T06:26:19.214Z,2.90
2018-11-27T06:28:47.461Z,2.90
2018-11-27T06:31:15.661Z,2.80
2018-11-27T06:33:43.943Z,2.80
2018-11-27T06:36:12.145Z,2.80
2018-11-27T06:38:40.383Z,2.80
2018-11-27T06:41:08.570Z,2.80
2018-11-27T06:43:36.817Z,2.90
2018-11-27T06:46:05.519Z,3.00
2018-11-27T06:48:33.738Z,3.00
2018-11-27T06:51:01.953Z,3.60
2018-11-27T06:53:30.155Z,3.70
2018-11-27T06:55:58.368Z,4.20
2018-11-27T06:58:26.610Z,4.60
2018-11-27T07:00:54.815Z,5.00
2018-11-27T07:03:23.071Z,5.30
2018-11-27T07:05:51.268Z,4.40
2018-11-27T07:08:19.484Z,4.60
2018-11-27T07:10:47.715Z,4.80
2018-11-27T07:13:20.255Z,4.50
2018-11-27T07:15:49.345Z,4.70
2018-11-27T07:18:17.539Z,4.60
2018-11-27T07:20:45.779Z,3.70
2018-11-27T07:23:14.055Z,3.30
2018-11-27T07:25:42.248Z,3.10
2018-11-27T07:28:10.477Z,3.10
2018-11-27T07:30:40.047Z,3.00
2018-11-27T07:33:08.303Z,3.00
2018-11-27T07:35:36.872Z,3.00
2018-11-27T07:38:05.379Z,3.20
2018-11-27T07:40:33.643Z,3.00
2018-11-27T07:43:04.409Z,3.10
2018-11-27T07:45:32.586Z,3.10
2018-11-27T07:48:00.811Z,3.10
2018-11-27T07:50:29.025Z,3.00
2018-11-27T07:52:57.212Z,3.00
2018-11-27T07:55:25.459Z,3.00
2018-11-27T07:57:54.276Z,3.10
2018-11-27T08:00:24.266Z,3.20
2018-11-27T08:02:55.452Z,3.20
2018-11-27T08:05:28.020Z,3.10
2018-11-27T08:07:56.994Z,3.10
2018-11-27T08:10:27.320Z,3.30
2018-11-27T08:12:55.567Z,3.50
2018-11-27T08:15:26.923Z,3.20
2018-11-27T08:17:55.123Z,3.10
2018-11-27T08:20:25.326Z,3.10
2018-11-27T08:22:53.594Z,3.20
2018-11-27T08:25:21.802Z,3.10
2018-11-27T08:27:50.055Z,3.20
2018-11-27T08:30:19.219Z,3.10
2018-11-27T08:32:47.520Z,3.00
2018-11-27T08:35:17.843Z,3.00
2018-11-27T08:37:46.764Z,3.00
2018-11-27T08:40:16.070Z,3.10
2018-11-27T08:42:44.419Z,3.40
2018-11-27T08:45:15.805Z,3.50
2018-11-27T08:47:44.246Z,3.40
2018-11-27T08:50:16.499Z,3.60
2018-11-27T08:52:47.091Z,3.50
2018-11-27T08:55:17.807Z,3.30
2018-11-27T08:57:46.693Z,3.40
2018-11-27T09:00:19.991Z,3.40
2018-11-27T09:02:48.235Z,3.40
2018-11-27T09:05:16.439Z,3.40
2018-11-27T09:07:45.151Z,3.40
2018-11-27T09:10:14.845Z,3.50
2018-11-27T09:12:43.078Z,3.70
2018-11-27T09:15:12.615Z,3.50
2018-11-27T09:17:41.622Z,3.40
2018-11-27T09:20:10.999Z,3.50
2018-11-27T09:22:39.182Z,3.40
2018-11-27T09:25:11.665Z,3.40
2018-11-27T09:27:39.939Z,3.40
2018-11-27T09:30:11.295Z,3.30
2018-11-27T09:32:39.547Z,3.60
2018-11-27T09:35:07.839Z,3.80
2018-11-27T09:37:36.117Z,3.80
2018-11-27T09:40:05.316Z,3.70
2018-11-27T09:42:33.645Z,3.60
2018-11-27T09:45:01.959Z,3.60
2018-11-27T09:47:30.186Z,3.50
2018-11-27T09:49:58.426Z,3.40
2018-11-27T09:52:26.696Z,3.30
2018-11-27T09:54:54.973Z,3.50
2018-11-27T09:57:23.255Z,3.70
2018-11-27T09:59:51.524Z,3.70
2018-11-27T10:02:19.783Z,3.80
2018-11-27T10:04:48.076Z,3.90
2018-11-27T10:07:16.371Z,3.70
2018-11-27T10:09:44.600Z,3.60
2018-11-27T10:12:12.782Z,3.80
2018-11-27T10:14:40.984Z,3.80
2018-11-27T10:17:09.199Z,3.80
2018-11-27T10:19:37.398Z,3.70
2018-11-27T10:22:05.700Z,3.70
2018-11-27T10:24:33.983Z,3.90
2018-11-27T10:27:02.229Z,4.10
2018-11-27T10:29:30.410Z,4.10
2018-11-27T10:31:58.640Z,4.10
2018-11-27T10:34:26.845Z,3.90
2018-11-27T10:36:55.049Z,3.90
2018-11-27T10:39:23.290Z,4.20
2018-11-27T10:41:51.484Z,4.10
2018-11-27T10:44:19.729Z,4.20
2018-11-27T10:46:47.949Z,4.10
2018-11-27T10:49:16.139Z,4.10
2018-11-27T10:51:44.372Z,3.90
2018-11-27T10:54:12.572Z,4.00
2018-11-27T10:56:40.772Z,4.00
2018-11-27T10:59:08.975Z,4.00
2018-11-27T11:01:42.704Z,3.90
2018-11-27T11:04:10.907Z,3.80
2018-11-27T11:06:39.164Z,4.00
2018-11-27T11:09:08.994Z,4.00
2018-11-27T11:11:37.222Z,4.10
2018-11-27T11:14:05.855Z,4.10
2018-11-27T11:16:34.035Z,4.00
2018-11-27T11:19:02.303Z,3.90
2018-11-27T11:21:30.598Z,4.00
2018-11-27T11:23:58.810Z,3.90
2018-11-27T11:26:27.039Z,4.00
2018-11-27T11:28:55.279Z,4.10
2018-11-27T11:31:23.582Z,4.00
2018-11-27T11:33:51.826Z,4.10
2018-11-27T11:36:20.107Z,4.00
2018-11-27T11:38:48.308Z,3.90
2018-11-27T11:41:16.557Z,3.90
2018-11-27T11:43:44.824Z,3.90
2018-11-27T11:46:13.031Z,3.80
2018-11-27T11:48:41.211Z,3.80
2018-11-27T11:51:09.455Z,3.80
2018-11-27T11:53:37.731Z,3.70
2018-11-27T11:56:07.571Z,3.80
2018-11-27T11:58:35.833Z,3.80
2018-11-27T12:01:04.122Z,3.90
2018-11-27T12:03:32.373Z,3.80
2018-11-27T12:06:00.580Z,3.70
2018-11-27T12:08:28.810Z,3.80
2018-11-27T12:10:57.008Z,3.80
2018-11-27T12:13:25.267Z,3.80
2018-11-27T12:15:53.470Z,3.80
2018-11-27T12:18:21.699Z,3.80
2018-11-27T12:20:49.895Z,3.80
2018-11-27T12:23:18.118Z,3.70
2018-11-27T12:25:46.340Z,3.80
2018-11-27T12:28:15.135Z,3.70
2018-11-27T12:30:42.852Z,3.70
2018-11-27T12:33:11.075Z,3.70
2018-11-27T12:35:39.270Z,3.60
2018-11-27T12:38:07.523Z,3.70
2018-11-27T12:40:35.706Z,3.70
2018-11-27T12:43:03.964Z,3.70
2018-11-27T12:45:32.899Z,3.70
2018-11-27T12:48:02.158Z,3.80
2018-11-27T12:50:48.402Z,3.80
2018-11-27T12:53:17.647Z,3.70
2018-11-27T12:55:48.984Z,3.70
2018-11-27T12:58:17.216Z,3.60
2018-11-27T13:00:45.484Z,3.60
2018-11-27T13:03:13.713Z,3.60
2018-11-27T13:05:43.555Z,3.60
2018-11-27T13:08:19.024Z,3.50
2018-11-27T13:10:47.311Z,3.60
2018-11-27T13:13:15.570Z,3.60
2018-11-27T13:15:44.413Z,3.60
2018-11-27T13:18:12.619Z,3.50
2018-11-27T13:20:41.327Z,3.60
2018-11-27T13:23:09.595Z,3.60
2018-11-27T13:25:38.383Z,3.70
2018-11-27T13:28:08.298Z,3.90
2018-11-27T13:31:08.927Z,4.10
2018-11-27T13:33:45.115Z,4.00
2018-11-27T13:36:13.356Z,4.10
2018-11-27T13:38:41.611Z,4.10
2018-11-27T13:41:09.805Z,3.90
2018-11-27T13:43:38.182Z,3.80
2018-11-27T13:46:07.575Z,3.80
2018-11-27T13:48:35.777Z,3.80
2018-11-27T13:51:04.015Z,3.80
2018-11-27T13:53:32.243Z,3.70
2018-11-27T13:56:00.505Z,3.70
2018-11-27T13:58:28.739Z,3.60
2018-11-27T14:00:56.958Z,3.70
2018-11-27T14:03:25.200Z,3.60
2018-11-27T14:05:53.503Z,3.60
2018-11-27T14:08:21.809Z,3.50
2018-11-27T14:10:50.029Z,3.60
2018-11-27T14:13:18.234Z,3.70
2018-11-27T14:15:46.509Z,3.50
2018-11-27T14:18:14.735Z,3.50
2018-11-27T14:20:42.927Z,3.50
2018-11-27T14:23:11.202Z,3.50
2018-11-27T14:25:39.432Z,3.50
2018-11-27T14:28:07.683Z,3.40
2018-11-27T14:30:35.907Z,3.40
2018-11-27T14:33:04.101Z,3.40
2018-11-27T14:35:32.320Z,3.40
2018-11-27T14:38:00.585Z,3.40
2018-11-27T14:40:28.834Z,3.50
2018-11-27T14:42:57.031Z,3.40
2018-11-27T14:45:26.329Z,3.50
2018-11-27T14:47:56.627Z,3.40
2018-11-27T14:50:24.833Z,4.20
2018-11-27T14:52:53.745Z,4.30
2018-11-27T14:55:27.139Z,4.60
2018-11-27T14:57:55.395Z,4.10
2018-11-27T15:00:24.636Z,4.50
2018-11-27T15:02:53.235Z,4.20
2018-11-27T15:05:26.970Z,3.80
2018-11-27T15:07:55.249Z,3.60
2018-11-27T15:10:23.534Z,3.50
2018-11-27T15:12:51.895Z,3.50
2018-11-27T15:15:20.144Z,3.50
2018-11-27T15:17:48.363Z,3.50
2018-11-27T15:20:17.942Z,3.50
2018-11-27T15:22:46.150Z,3.50
2018-11-27T15:25:14.410Z,3.50
2018-11-27T15:27:42.618Z,3.40
2018-11-27T15:30:12.487Z,3.40
2018-11-27T15:32:40.691Z,3.40
2018-11-27T15:35:09.752Z,3.30
2018-11-27T15:37:37.997Z,3.30
2018-11-27T15:40:10.195Z,3.30
2018-11-27T15:42:38.521Z,3.30
2018-11-27T15:45:09.183Z,3.30
2018-11-27T15:47:37.544Z,3.40
2018-11-27T15:50:07.705Z,3.50
2018-11-27T15:52:35.923Z,3.40
2018-11-27T15:55:05.197Z,3.40
2018-11-27T15:57:33.482Z,3.40
2018-11-27T16:00:01.738Z,3.30
2018-11-27T16:02:30.048Z,3.30
2018-11-27T16:04:58.269Z,3.30
2018-11-27T16:07:26.490Z,3.30
2018-11-27T16:09:54.752Z,3.40
2018-11-27T16:12:22.955Z,3.30
2018-11-27T16:14:51.163Z,3.20
2018-11-27T16:17:19.388Z,3.30
2018-11-27T16:19:47.628Z,3.30
2018-11-27T16:22:15.835Z,3.30
2018-11-27T16:24:44.023Z,3.30
2018-11-27T16:27:12.207Z,3.30
2018-11-27T16:29:40.516Z,3.20
2018-11-27T16:32:08.704Z,3.20
2018-11-27T16:34:36.924Z,3.10
2018-11-27T16:37:05.457Z,3.10
2018-11-27T16:39:33.659Z,3.10
2018-11-27T16:42:01.843Z,3.10
2018-11-27T16:44:30.062Z,3.10
2018-11-27T16:46:58.279Z,3.20
2018-11-27T16:49:26.465Z,3.20
2018-11-27T16:51:54.663Z,3.20
2018-11-27T16:54:22.869Z,3.20
2018-11-27T16:56:51.054Z,3.20
2018-11-27T16:59:19.254Z,3.10
2018-11-27T17:01:47.443Z,3.10
2018-11-27T17:04:15.647Z,3.00
2018-11-27T17:06:43.838Z,3.10
2018-11-27T17:09:12.010Z,3.10
2018-11-27T17:11:40.224Z,3.10
2018-11-27T17:14:08.452Z,3.10
2018-11-27T17:16:36.728Z,3.00
2018-11-27T17:19:04.948Z,3.00
2018-11-27T17:21:33.147Z,3.00
2018-11-27T17:24:01.371Z,3.00
2018-11-27T17:26:29.639Z,2.90
2018-11-27T17:28:57.905Z,2.90
2018-11-27T17:31:26.131Z,2.90
2018-11-27T17:34:04.968Z,2.90
2018-11-27T17:36:33.200Z,2.90
2018-11-27T17:39:01.388Z,3.00
2018-11-27T17:41:29.584Z,3.00
2018-11-27T17:43:57.808Z,2.90
2018-11-27T17:46:26.054Z,3.00
2018-11-27T17:48:54.260Z,3.10
2018-11-27T17:51:22.500Z,3.00
2018-11-27T17:53:50.828Z,3.00
2018-11-27T17:56:19.027Z,3.00
2018-11-27T17:58:47.256Z,3.10
2018-11-27T18:01:15.478Z,2.90
2018-11-27T18:03:43.654Z,2.90
2018-11-27T18:06:11.835Z,2.90
2018-11-27T18:08:40.033Z,2.90
2018-11-27T18:11:08.244Z,2.90
2018-11-27T18:13:36.435Z,2.90
2018-11-27T18:16:05.033Z,2.90
2018-11-27T18:18:33.279Z,2.90
2018-11-27T18:21:01.455Z,2.80
2018-11-27T18:23:29.666Z,2.80
2018-11-27T18:25:57.912Z,2.70
2018-11-27T18:28:26.123Z,2.70
2018-11-27T18:30:54.323Z,2.70
2018-11-27T18:33:22.672Z,2.70
2018-11-27T18:35:50.936Z,2.70
2018-11-27T18:38:19.182Z,2.60
2018-11-27T18:40:47.367Z,2.60
2018-11-27T18:43:15.627Z,2.60
2018-11-27T18:45:43.839Z,2.60
2018-11-27T18:48:12.075Z,2.60
2018-11-27T18:50:40.299Z,2.60
2018-11-27T18:53:08.543Z,2.60
2018-11-27T18:55:36.799Z,2.60
2018-11-27T18:58:05.200Z,2.60
2018-11-27T19:00:33.856Z,2.60
2018-11-27T19:03:02.084Z,2.60
2018-11-27T19:05:30.306Z,2.60
2018-11-27T19:07:58.523Z,2.60
2018-11-27T19:10:31.071Z,2.70
2018-11-27T19:12:59.354Z,2.80
2018-11-27T19:15:37.165Z,2.60
2018-11-27T19:18:13.856Z,2.40
2018-11-27T19:20:42.075Z,2.50
2018-11-27T19:23:10.299Z,2.60
2018-11-27T19:25:38.523Z,2.50
2018-11-27T19:28:07.468Z,2.30
2018-11-27T19:30:35.711Z,2.30
2018-11-27T19:33:03.903Z,2.30
2018-11-27T19:35:32.167Z,2.30
2018-11-27T19:38:00.368Z,2.40
2018-11-27T19:40:28.583Z,2.30
2018-11-27T19:42:56.799Z,2.00
2018-11-27T19:45:26.336Z,1.80
2018-11-27T19:47:55.231Z,1.50
2018-11-27T19:50:23.400Z,1.40
2018-11-27T19:52:53.103Z,1.40
2018-11-27T19:55:21.443Z,1.50
2018-11-27T19:57:49.857Z,1.50
2018-11-27T20:00:26.553Z,1.40
2018-11-27T20:02:54.911Z,1.50
2018-11-27T20:05:24.261Z,1.60
2018-11-27T20:07:52.483Z,1.60
2018-11-27T20:10:20.665Z,1.60
2018-11-27T20:12:48.999Z,1.70
2018-11-27T20:15:19.460Z,1.70
2018-11-27T20:17:48.504Z,1.70
2018-11-27T20:20:17.998Z,1.80
2018-11-27T20:22:46.247Z,1.70
2018-11-27T20:25:15.433Z,1.50
2018-11-27T20:27:43.728Z,1.30
2018-11-27T20:30:18.639Z,1.40
2018-11-27T20:32:49.447Z,1.40
2018-11-27T20:35:18.419Z,1.50
2018-11-27T20:37:47.319Z,1.50
2018-11-27T20:40:16.670Z,1.60
2018-11-27T20:42:44.942Z,1.70
2018-11-27T20:45:19.421Z,1.80
2018-11-27T20:47:43.248Z,1.80
2018-11-27T20:50:13.351Z,1.80
2018-11-27T20:52:41.572Z,1.70
2018-11-27T20:55:09.819Z,1.60
2018-11-27T20:57:38.205Z,1.50
2018-11-27T21:00:17.087Z,1.40
2018-11-27T21:02:45.692Z,1.40
2018-11-27T21:05:13.911Z,1.30
2018-11-27T21:07:42.108Z,1.30
2018-11-27T21:10:12.490Z,1.20
2018-11-27T21:12:41.324Z,1.30
2018-11-27T21:15:11.622Z,1.30
2018-11-27T21:17:39.833Z,1.30
2018-11-27T21:20:09.354Z,1.40
2018-11-27T21:22:37.670Z,1.40
2018-11-27T21:25:08.075Z,1.40
2018-11-27T21:27:36.302Z,1.40
2018-11-27T21:30:08.143Z,1.40
2018-11-27T21:32:36.363Z,1.40
2018-11-27T21:35:05.279Z,1.40
2018-11-27T21:37:33.474Z,1.40
2018-11-27T21:40:01.720Z,1.40
2018-11-27T21:42:29.995Z,1.40
2018-11-27T21:44:58.335Z,1.40
2018-11-27T21:47:26.622Z,1.40
2018-11-27T21:49:54.823Z,1.50
2018-11-27T21:52:23.066Z,1.50
2018-11-27T21:54:51.271Z,1.50
2018-11-27T21:57:19.471Z,1.40
2018-11-27T21:59:47.683Z,1.40
2018-11-27T22:02:15.883Z,1.40
2018-11-27T22:04:44.082Z,1.40
2018-11-27T22:07:12.312Z,1.40
2018-11-27T22:09:40.518Z,1.40
2018-11-27T22:12:08.808Z,1.40
2018-11-27T22:14:36.982Z,1.50
2018-11-27T22:17:05.435Z,1.40
2018-11-27T22:19:33.622Z,1.40
2018-11-27T22:22:01.896Z,1.50
2018-11-27T22:24:30.954Z,1.40
2018-11-27T22:26:59.142Z,1.50
2018-11-27T22:29:27.452Z,1.50
2018-11-27T22:31:55.778Z,1.50
2018-11-27T22:34:23.988Z,1.50
2018-11-27T22:36:52.237Z,1.50
2018-11-27T22:39:20.448Z,1.50
2018-11-27T22:41:48.688Z,1.50
2018-11-27T22:44:18.333Z,1.60
2018-11-27T22:46:46.546Z,1.60
2018-11-27T22:49:14.800Z,1.60
2018-11-27T22:51:42.966Z,1.60
2018-11-27T22:54:11.207Z,1.70
2018-11-27T22:56:39.503Z,1.70
2018-11-27T22:59:07.859Z,1.70
2018-11-27T23:01:39.585Z,1.70
2018-11-27T23:04:08.227Z,1.60
2018-11-27T23:06:36.700Z,1.70
2018-11-27T23:09:07.958Z,1.70
2018-11-27T23:11:36.259Z,1.60
2018-11-27T23:14:04.473Z,1.70
2018-11-27T23:16:33.068Z,1.70
2018-11-27T23:19:01.250Z,1.70
2018-11-27T23:21:29.528Z,1.70
2018-11-27T23:23:57.757Z,1.70
2018-11-27T23:26:25.979Z,1.70
2018-11-27T23:28:54.184Z,1.70
2018-11-27T23:31:22.380Z,1.70
2018-11-27T23:33:50.711Z,1.70
2018-11-27T23:36:18.891Z,1.70
2018-11-27T23:38:47.104Z,1.70
2018-11-27T23:41:15.326Z,1.70
2018-11-27T23:43:43.530Z,1.70
2018-11-27T23:46:11.780Z,1.70
2018-11-27T23:48:39.963Z,1.70
2018-11-27T23:51:08.247Z,1.70
2018-11-27T23:53:36.508Z,1.70
2018-11-27T23:56:04.691Z,1.80
2018-11-27T23:58:32.883Z,1.80
